createdAt,value
2022-12-25T00:00:20.354Z,100441.72
2022-12-25T00:05:23.960Z,100437.75
2022-12-25T00:10:28.348Z,100452.94
2022-12-25T00:15:31.081Z,100448.84
2022-12-25T00:20:33.998Z,100444.69
2022-12-25T00:25:42.050Z,100454.44
2022-12-25T00:30:44.792Z,100439.00
2022-12-25T00:35:58.233Z,100435.81
2022-12-25T00:41:06.013Z,100390.91
2022-12-25T00:46:09.673Z,100402.06
2022-12-25T00:51:12.688Z,100404.44
2022-12-25T00:56:16.746Z,100409.88
2022-12-25T01:01:19.585Z,100398.03
2022-12-25T01:06:22.413Z,100382.38
2022-12-25T01:11:27.211Z,100345.69
2022-12-25T01:16:30.399Z,100370.97
2022-12-25T01:21:33.485Z,100360.06
2022-12-25T01:26:37.555Z,100361.31
2022-12-25T01:31:40.333Z,100353.78
2022-12-25T01:36:43.157Z,100359.19
2022-12-25T01:41:48.070Z,100362.06
2022-12-25T01:46:50.791Z,100380.13
2022-12-25T01:51:55.576Z,100398.25
2022-12-25T01:57:02.366Z,100409.59
2022-12-25T02:02:05.389Z,100390.41
2022-12-25T02:07:10.203Z,100412.31
2022-12-25T02:12:19.181Z,100409.97
2022-12-25T02:17:25.926Z,100420.00
2022-12-25T02:22:35.821Z,100426.13
2022-12-25T02:28:07.854Z,100461.50
2022-12-25T02:33:33.118Z,100470.94
2022-12-25T02:38:38.796Z,100478.16
2022-12-25T02:44:00.664Z,100476.19
2022-12-25T02:49:24.387Z,100504.56
2022-12-25T02:55:03.335Z,100519.13
2022-12-25T03:00:26.741Z,100531.06
2022-12-25T03:05:59.541Z,100532.47
2022-12-25T03:11:21.953Z,100557.22
2022-12-25T03:16:54.846Z,100569.84
2022-12-25T03:22:15.949Z,100590.97
2022-12-25T03:27:18.626Z,100604.28
2022-12-25T03:32:28.328Z,100613.28
2022-12-25T03:37:56.357Z,100606.75
2022-12-25T03:43:23.958Z,100628.09
2022-12-25T03:48:46.911Z,100646.00
2022-12-25T03:54:11.387Z,100648.72
2022-12-25T03:59:31.882Z,100659.19
2022-12-25T04:04:53.409Z,100671.75
2022-12-25T04:10:13.966Z,100679.09
2022-12-25T04:15:34.341Z,100727.81
2022-12-25T04:20:55.910Z,100771.22
2022-12-25T04:26:16.632Z,100785.81
2022-12-25T04:31:36.855Z,100802.94
2022-12-25T04:36:41.051Z,100843.03
2022-12-25T04:41:43.739Z,100917.38
2022-12-25T04:46:46.525Z,100956.16
2022-12-25T04:51:50.619Z,100974.84
2022-12-25T04:56:53.349Z,101059.16
2022-12-25T05:01:56.112Z,101085.66
2022-12-25T05:07:00.311Z,101161.88
2022-12-25T05:12:03.020Z,101207.56
2022-12-25T05:17:05.740Z,101226.66
2022-12-25T05:22:09.815Z,101215.47
2022-12-25T05:27:12.506Z,101236.53
2022-12-25T05:32:15.300Z,101259.16
2022-12-25T05:37:19.335Z,101273.44
2022-12-25T05:42:22.519Z,101300.28
2022-12-25T05:47:25.220Z,101301.09
2022-12-25T05:52:32.035Z,101321.69
2022-12-25T05:57:34.842Z,101334.31
2022-12-25T06:02:37.712Z,101355.25
2022-12-25T06:07:41.807Z,101335.38
2022-12-25T06:12:44.572Z,101283.50
2022-12-25T06:17:47.363Z,101277.25
2022-12-25T06:22:51.335Z,101278.38
2022-12-25T06:27:54.229Z,101310.28
2022-12-25T06:32:56.929Z,101320.97
2022-12-25T06:38:01.139Z,101283.81
2022-12-25T06:43:03.810Z,101298.72
2022-12-25T06:48:06.761Z,101289.66
2022-12-25T06:53:10.854Z,101290.06
2022-12-25T06:58:13.648Z,101289.06
2022-12-25T07:03:19.421Z,101252.09
2022-12-25T07:08:23.957Z,101226.06
2022-12-25T07:13:26.743Z,101207.16
2022-12-25T07:18:29.771Z,101207.81
2022-12-25T07:23:33.796Z,101224.78
2022-12-25T07:28:36.485Z,101184.63
2022-12-25T07:33:39.209Z,101064.88
2022-12-25T07:38:43.457Z,101035.66
2022-12-25T07:43:46.439Z,101034.53
2022-12-25T07:48:49.186Z,101047.75
2022-12-25T07:53:53.542Z,101081.00
2022-12-25T07:58:56.243Z,101103.19
2022-12-25T08:04:00.861Z,101132.34
2022-12-25T08:09:06.933Z,101112.47
2022-12-25T08:14:10.228Z,101177.53
2022-12-25T08:19:14.453Z,101202.94
2022-12-25T08:24:19.672Z,101207.28
2022-12-25T08:29:22.395Z,101225.03
2022-12-25T08:34:25.065Z,101196.47
2022-12-25T08:39:29.147Z,101213.94
2022-12-25T08:44:31.834Z,101215.25
2022-12-25T08:49:34.484Z,101257.72
2022-12-25T08:54:38.696Z,101258.94
2022-12-25T08:59:41.364Z,101299.94
2022-12-25T09:04:47.566Z,101348.81
2022-12-25T09:09:51.612Z,101349.22
2022-12-25T09:14:54.294Z,101381.44
2022-12-25T09:19:56.960Z,101349.94
2022-12-25T09:25:00.995Z,101367.63
2022-12-25T09:30:03.876Z,101376.59
2022-12-25T09:35:07.300Z,101420.00
2022-12-25T09:40:15.323Z,101421.31
2022-12-25T09:45:21.021Z,101418.81
2022-12-25T09:50:28.857Z,101454.97
2022-12-25T09:55:35.261Z,101455.16
2022-12-25T10:00:42.598Z,101454.56
2022-12-25T10:06:03.207Z,101454.56
2022-12-25T10:11:14.808Z,101441.34
2022-12-25T10:16:23.475Z,101456.41
2022-12-25T10:21:27.966Z,101467.69
2022-12-25T10:26:33.010Z,101478.44
2022-12-25T10:31:37.181Z,101488.91
2022-12-25T10:36:40.372Z,101486.41
2022-12-25T10:41:57.980Z,101500.63
2022-12-25T10:47:01.946Z,101493.03
2022-12-25T10:52:05.430Z,101520.38
2022-12-25T10:57:17.128Z,101502.00
2022-12-25T11:02:24.309Z,101469.97
2022-12-25T11:07:27.509Z,101465.16
2022-12-25T11:12:33.209Z,101274.72
2022-12-25T11:17:36.981Z,101317.09
2022-12-25T11:22:47.940Z,101343.38
2022-12-25T11:27:59.887Z,101362.16
2022-12-25T11:33:06.514Z,101373.78
2022-12-25T11:38:09.642Z,101342.97
2022-12-25T11:43:18.409Z,101336.19
2022-12-25T11:48:24.875Z,101343.97
2022-12-25T11:53:31.573Z,101346.59
2022-12-25T11:58:39.552Z,101344.97
2022-12-25T12:03:42.685Z,101356.50
2022-12-25T12:08:47.260Z,101373.97
2022-12-25T12:14:00.947Z,101385.28
2022-12-25T12:19:12.790Z,101401.84
2022-12-25T12:24:18.501Z,101420.44
2022-12-25T12:29:26.189Z,101420.56
2022-12-25T12:34:30.417Z,101401.28
2022-12-25T12:39:34.974Z,101244.78
2022-12-25T12:44:39.046Z,100578.56
2022-12-25T12:49:41.952Z,100426.09
2022-12-25T12:54:56.724Z,100441.44
2022-12-25T13:00:08.628Z,100424.03
2022-12-25T13:05:20.373Z,100472.47
2022-12-25T13:10:26.544Z,100489.78
2022-12-25T13:15:32.667Z,100520.56
2022-12-25T13:20:41.609Z,100539.03
2022-12-25T13:25:53.097Z,100547.88
2022-12-25T13:31:04.849Z,100547.13
2022-12-25T13:36:11.634Z,100564.69
2022-12-25T13:41:36.897Z,100547.13
2022-12-25T13:46:41.151Z,100497.91
2022-12-25T13:51:44.003Z,100517.41
2022-12-25T13:56:49.135Z,100547.13
2022-12-25T14:01:54.135Z,100560.44
2022-12-25T14:06:56.991Z,100557.81
2022-12-25T14:11:59.774Z,100574.38
2022-12-25T14:17:05.855Z,100602.22
2022-12-25T14:22:12.649Z,100626.13
2022-12-25T14:27:19.651Z,100631.28
2022-12-25T14:32:25.862Z,100646.31
2022-12-25T14:37:31.052Z,100636.72
2022-12-25T14:42:35.923Z,100641.06
2022-12-25T14:47:52.383Z,100671.94
2022-12-25T14:52:55.223Z,100677.94
2022-12-25T14:58:00.024Z,100657.81
2022-12-25T15:03:06.626Z,100682.44
2022-12-25T15:08:25.834Z,100708.78
2022-12-25T15:13:28.948Z,100731.69
2022-12-25T15:18:37.089Z,100709.59
2022-12-25T15:23:39.763Z,98024.63
2022-12-25T15:28:42.859Z,98028.09
2022-12-25T15:33:46.860Z,98062.22
2022-12-25T15:38:49.695Z,98078.88
2022-12-25T15:43:52.402Z,98184.72
2022-12-25T15:48:56.624Z,98235.47
2022-12-25T15:53:59.627Z,98259.13
2022-12-25T15:59:02.480Z,98288.91
2022-12-25T16:04:06.716Z,98349.31
2022-12-25T16:09:10.716Z,98368.53
2022-12-25T16:14:14.192Z,98379.03
2022-12-25T16:19:18.396Z,98383.41
2022-12-25T16:24:21.147Z,98429.78
2022-12-25T16:29:24.899Z,98406.91
2022-12-25T16:34:29.117Z,98422.66
2022-12-25T16:39:32.112Z,98405.25
2022-12-25T16:44:37.710Z,98393.94
2022-12-25T16:49:41.856Z,98391.31
2022-12-25T16:54:46.246Z,98379.94
2022-12-25T16:59:49.057Z,98359.81
2022-12-25T17:04:53.209Z,98358.19
2022-12-25T17:09:57.150Z,98385.34
2022-12-25T17:15:01.555Z,98414.31
2022-12-25T17:20:07.020Z,98463.50
2022-12-25T17:25:10.467Z,98467.88
2022-12-25T17:30:13.617Z,98477.72
2022-12-25T17:35:20.632Z,98455.69
2022-12-25T17:40:23.934Z,98461.06
2022-12-25T17:45:26.679Z,98469.00
2022-12-25T17:50:33.591Z,98440.91
2022-12-25T17:55:41.178Z,98481.41
2022-12-25T18:00:43.917Z,98478.88
2022-12-25T18:05:48.106Z,98497.38
2022-12-25T18:10:52.144Z,98506.91
2022-12-25T18:15:54.894Z,98575.59
2022-12-25T18:20:59.250Z,98599.34
2022-12-25T18:26:03.271Z,98649.84
2022-12-25T18:31:08.909Z,98586.00
2022-12-25T18:36:13.581Z,98466.63
2022-12-25T18:41:16.546Z,98384.31
2022-12-25T18:46:22.119Z,98341.38
2022-12-25T18:51:31.331Z,98367.69
2022-12-25T18:56:39.196Z,98384.47
2022-12-25T19:01:42.035Z,98341.44
2022-12-25T19:06:46.372Z,98365.25
2022-12-25T19:11:49.339Z,98377.50
2022-12-25T19:16:54.116Z,98419.72
2022-12-25T19:21:58.915Z,98504.88
2022-12-25T19:27:01.819Z,98543.38
2022-12-25T19:32:04.746Z,98602.19
2022-12-25T19:37:09.005Z,98626.78
2022-12-25T19:42:11.775Z,98644.34
2022-12-25T19:47:14.639Z,98688.28
2022-12-25T19:52:18.689Z,98718.06
2022-12-25T19:57:21.791Z,98767.13
2022-12-25T20:02:24.932Z,98889.25
2022-12-25T20:07:29.222Z,98944.34
2022-12-25T20:12:33.155Z,99061.91
2022-12-25T20:17:36.021Z,99197.09
2022-12-25T20:22:40.263Z,99318.31
2022-12-25T20:27:42.934Z,99397.31
2022-12-25T20:32:50.361Z,99440.38
2022-12-25T20:37:54.819Z,99454.22
2022-12-25T20:42:57.523Z,99460.34
2022-12-25T20:48:00.730Z,99605.41
2022-12-25T20:53:04.853Z,99601.91
2022-12-25T20:58:07.528Z,99637.00
2022-12-25T21:03:10.649Z,99659.97
2022-12-25T21:08:14.778Z,99661.47
2022-12-25T21:13:18.228Z,99721.38
2022-12-25T21:18:22.379Z,99757.44
2022-12-25T21:23:27.547Z,99772.19
2022-12-25T21:28:32.251Z,99857.59
2022-12-25T21:33:53.219Z,99884.78
2022-12-25T21:39:00.127Z,99926.81
2022-12-25T21:44:03.528Z,100013.16
2022-12-25T21:49:06.647Z,100069.50
2022-12-25T21:54:11.563Z,100114.19
2022-12-25T21:59:20.675Z,100261.50
2022-12-25T22:04:24.382Z,100403.91
2022-12-25T22:09:28.618Z,100349.38
2022-12-25T22:14:54.740Z,100368.78
2022-12-25T22:19:59.245Z,100395.13
2022-12-25T22:25:05.114Z,100429.34
2022-12-25T22:30:09.837Z,100447.63
2022-12-25T22:35:13.217Z,100490.50
2022-12-25T22:40:18.675Z,100627.72
2022-12-25T22:45:21.602Z,100626.94
2022-12-25T22:50:24.526Z,100672.78
2022-12-25T22:55:29.429Z,100653.44
2022-12-25T23:00:32.425Z,100692.13
2022-12-25T23:05:35.128Z,100634.31
2022-12-25T23:10:39.246Z,100632.56
2022-12-25T23:15:41.990Z,100617.47
2022-12-25T23:21:02.524Z,100609.56
2022-12-25T23:26:09.591Z,100605.88
2022-12-25T23:31:12.542Z,100627.63
2022-12-25T23:36:15.323Z,100623.94
2022-12-25T23:41:19.381Z,100675.66
2022-12-25T23:46:22.122Z,100723.72
2022-12-25T23:51:24.792Z,100757.91
2022-12-25T23:56:28.787Z,100772.66
